Time;durP1;ratioP1;P1;durP2;ratioP2;P2;SDS_P1;SDS_P2;PMS_P1;PMS_P2;Temp;Humidity;BMP_temperature;BMP_pressure;BME280_temperature;BME280_humidity;BME280_pressure;Samples;Min_cycle;Max_cycle;Signal;HPM_P1;HPM_P2
2022/01/05 00:00:53;;;;;;;;;;;;;;;;;;5138306;27;20006;-79
2022/01/05 00:03:18;;;;;;;;;;;;;;;;;;5137215;27;19966;-79
2022/01/05 00:05:44;;;;;;;;;;;;;;;;;;5138282;27;19915;-79
2022/01/05 00:08:09;;;;;;;;;;;;;;;;;;5138258;27;19915;-79
2022/01/05 00:10:34;;;;;;;;;;;;;;;;;;5138568;27;19922;-79
2022/01/05 00:13:00;;;;;;;;;;;;;;;;;;5136751;27;19915;-79
2022/01/05 00:15:25;;;;;;;;;;;;;;;;;;5145617;27;19953;-79
2022/01/05 00:17:51;;;;;;;;;;;;;;;;;;5138138;27;19950;-79
2022/01/05 00:20:16;;;;;;;;;;;;;;;;;;5138309;27;19916;-79
2022/01/05 00:22:41;;;;;;;;;;;;;;;;;;5138038;27;19916;-79
2022/01/05 00:25:07;;;;;;;;;;;;;;;;;;5136695;27;19994;-79
2022/01/05 00:27:32;;;;;;;;;;;;;;;;;;5119280;27;20256;-79
2022/01/05 00:30:00;;;;;;;;;;;;;;;;;;5136840;27;19990;-79
2022/01/05 00:32:25;;;;;;;;;;;;;;;;;;5136778;27;19915;-79
2022/01/05 00:34:52;;;;;;;;;;;;;;;;;;5138003;27;20051;-79
2022/01/05 00:37:18;;;;;;;;;;;;;;;;;;5144367;27;19930;-79
2022/01/05 00:39:43;;;;;;;;;;;;;;;;;;5136475;27;19915;-79
2022/01/05 00:42:08;;;;;;;;;;;;;;;;;;5137593;27;20328;-79
2022/01/05 00:44:34;;;;;;;;;;;;;;;;;;5138157;27;19915;-78
2022/01/05 00:46:59;;;;;;;;;;;;;;;;;;5136358;27;19955;-79
2022/01/05 00:49:25;;;;;;;;;;;;;;;;;;5137358;27;19923;-79
2022/01/05 00:51:50;;;;;;;;;;;;;;;;;;5137388;27;19945;-78
2022/01/05 00:54:15;;;;;;;;;;;;;;;;;;5137676;27;19916;-79
2022/01/05 00:56:41;;;;;;;;;;;;;;;;;;5139325;27;20010;-79
2022/01/05 00:59:06;;;;;;;;;;;;;;;;;;5139118;27;19962;-79
2022/01/05 01:01:31;;;;;;;;;;;;;;;;;;5137088;27;19998;-79
2022/01/05 01:03:57;;;;;;;;;;;;;;;;;;5136121;27;19922;-79
2022/01/05 01:06:22;;;;;;;;;;;;;;;;;;5136185;27;19922;-79
2022/01/05 01:08:47;;;;;;;;;;;;;;;;;;5137136;27;19949;-79
2022/01/05 01:11:13;;;;;;;;;;;;;;;;;;5135593;27;19915;-80
2022/01/05 01:13:38;;;;;;;;;;;;;;;;;;5137028;27;19919;-79
2022/01/05 01:16:04;;;;;;;;;;;;;;;;;;5137114;27;19951;-79
2022/01/05 01:18:29;;;;;;;;;;;;;;;;;;5142171;27;19923;-78
2022/01/05 01:20:54;;;;;;;;;;;;;;;;;;5137637;27;19916;-79
2022/01/05 01:23:22;;;;;;;;;;;;;;;;;;5136803;27;20268;-79
2022/01/05 01:25:48;;;;;;;;;;;;;;;;;;5135449;27;19919;-79
2022/01/05 01:28:13;;;;;;;;;;;;;;;;;;5135521;27;19922;-78
2022/01/05 01:30:38;;;;;;;;;;;;;;;;;;5136568;27;19974;-78
2022/01/05 01:33:04;;;;;;;;;;;;;;;;;;5136603;27;19916;-78
2022/01/05 01:35:29;;;;;;;;;;;;;;;;;;5135214;27;19916;-78
2022/01/05 01:37:54;;;;;;;;;;;;;;;;;;5135442;27;19915;-78
2022/01/05 01:40:20;;;;;;;;;;;;;;;;;;5143593;27;19915;-79
2022/01/05 01:42:45;;;;;;;;;;;;;;;;;;5135385;27;19920;-79
2022/01/05 01:45:11;;;;;;;;;;;;;;;;;;5135094;27;19919;-78
2022/01/05 01:47:36;;;;;;;;;;;;;;;;;;5135095;27;19919;-78
2022/01/05 01:50:02;;;;;;;;;;;;;;;;;;5118135;27;20345;-79
2022/01/05 01:52:27;;;;;;;;;;;;;;;;;;5134929;27;19915;-79
2022/01/05 01:54:53;;;;;;;;;;;;;;;;;;5134617;27;19915;-79
2022/01/05 01:57:19;;;;;;;;;;;;;;;;;;5118073;27;19951;-80
2022/01/05 01:59:44;;;;;;;;;;;;;;;;;;5135333;27;19920;-79
2022/01/05 02:02:10;;;;;;;;;;;;;;;;;;5145132;27;19923;-79
2022/01/05 02:04:36;;;;;;;;;;;;;;;;;;5136016;27;19915;-78
2022/01/05 02:07:03;;;;;;;;;;;;;;;;;;5134785;27;19922;-78
2022/01/05 02:09:28;;;;;;;;;;;;;;;;;;5134385;27;19980;-78
2022/01/05 02:11:53;;;;;;;;;;;;;;;;;;5135863;27;19955;-78
2022/01/05 02:14:19;;;;;;;;;;;;;;;;;;5134720;27;19916;-79
2022/01/05 02:16:45;;;;;;;;;;;;;;;;;;5135868;27;19922;-79
2022/01/05 02:19:11;;;;;;;;;;;;;;;;;;5135767;27;19916;-79
2022/01/05 02:21:37;;;;;;;;;;;;;;;;;;5137041;27;20264;-79
2022/01/05 02:24:03;;;;;;;;;;;;;;;;;;5140047;27;19915;-79
2022/01/05 02:26:28;;;;;;;;;;;;;;;;;;5136327;27;19919;-78
2022/01/05 02:28:54;;;;;;;;;;;;;;;;;;5134515;27;20237;-78
2022/01/05 02:31:19;;;;;;;;;;;;;;;;;;5135948;27;19918;-79
2022/01/05 02:33:45;;;;;;;;;;;;;;;;;;5134450;28;20023;-78
2022/01/05 02:36:13;;;;;;;;;;;;;;;;;;5134422;28;19916;-78
2022/01/05 02:38:39;;;;;;;;;;;;;;;;;;5134263;28;19923;-78
2022/01/05 02:41:05;;;;;;;;;;;;;;;;;;5134618;28;19915;-78
2022/01/05 02:43:31;;;;;;;;;;;;;;;;;;5144620;28;19937;-78
2022/01/05 02:45:57;;;;;;;;;;;;;;;;;;5137609;27;19915;-78
2022/01/05 02:48:22;;;;;;;;;;;;;;;;;;5136124;27;20594;-78
2022/01/05 02:50:47;;;;;;;;;;;;;;;;;;5134476;28;19911;-79
2022/01/05 02:53:13;;;;;;;;;;;;;;;;;;5135477;27;19916;-78
2022/01/05 02:55:38;;;;;;;;;;;;;;;;;;5137030;27;19961;-79
2022/01/05 02:58:03;;;;;;;;;;;;;;;;;;5139519;27;19919;-78
2022/01/05 03:00:29;;;;;;;;;;;;;;;;;;5139600;27;19965;-78
2022/01/05 03:02:54;;;;;;;;;;;;;;;;;;5139525;27;20002;-78
2022/01/05 03:05:19;;;;;;;;;;;;;;;;;;5141505;27;19916;-78
2022/01/05 03:07:45;;;;;;;;;;;;;;;;;;5139193;27;19915;-78
2022/01/05 03:10:10;;;;;;;;;;;;;;;;;;5138159;27;19919;-78
2022/01/05 03:12:36;;;;;;;;;;;;;;;;;;5139356;27;19923;-79
2022/01/05 03:15:03;;;;;;;;;;;;;;;;;;5138157;27;19923;-78
2022/01/05 03:17:29;;;;;;;;;;;;;;;;;;5139280;27;19968;-79
2022/01/05 03:19:54;;;;;;;;;;;;;;;;;;5139185;27;20249;-79
2022/01/05 03:22:19;;;;;;;;;;;;;;;;;;5137772;27;19922;-78
2022/01/05 03:24:45;;;;;;;;;;;;;;;;;;5144911;27;20256;-78
2022/01/05 03:27:10;;;;;;;;;;;;;;;;;;5139180;27;19915;-78
2022/01/05 03:29:35;;;;;;;;;;;;;;;;;;5139246;27;19912;-79
2022/01/05 03:32:01;;;;;;;;;;;;;;;;;;5137906;27;20397;-79
2022/01/05 03:34:27;;;;;;;;;;;;;;;;;;5138995;27;20362;-79
2022/01/05 03:36:54;;;;;;;;;;;;;;;;;;5137408;27;19911;-79
2022/01/05 03:39:20;;;;;;;;;;;;;;;;;;5139092;27;20244;-78
2022/01/05 03:41:45;;;;;;;;;;;;;;;;;;5137583;27;19922;-78
2022/01/05 03:44:11;;;;;;;;;;;;;;;;;;5146815;27;19915;-79
2022/01/05 03:46:36;;;;;;;;;;;;;;;;;;5137578;27;19919;-79
2022/01/05 03:49:02;;;;;;;;;;;;;;;;;;5137423;27;19915;-79
2022/01/05 03:51:27;;;;;;;;;;;;;;;;;;5137214;27;19951;-80
2022/01/05 03:53:52;;;;;;;;;;;;;;;;;;5138602;27;20329;-79
2022/01/05 03:56:18;;;;;;;;;;;;;;;;;;5137298;27;20292;-78
2022/01/05 03:58:44;;;;;;;;;;;;;;;;;;5137365;27;20321;-79
2022/01/05 04:01:09;;;;;;;;;;;;;;;;;;5138273;27;19951;-78
2022/01/05 04:03:34;;;;;;;;;;;;;;;;;;5140029;27;20401;-78
2022/01/05 04:06:00;;;;;;;;;;;;;;;;;;5137141;27;19922;-78
2022/01/05 04:08:25;;;;;;;;;;;;;;;;;;5137067;27;19918;-78
2022/01/05 04:10:50;;;;;;;;;;;;;;;;;;5138556;27;20003;-79
2022/01/05 04:13:16;;;;;;;;;;;;;;;;;;5120066;27;20281;-78
2022/01/05 04:15:42;;;;;;;;;;;;;;;;;;5137428;27;19955;-78
2022/01/05 04:18:07;;;;;;;;;;;;;;;;;;5138039;27;20004;-78
2022/01/05 04:20:33;;;;;;;;;;;;;;;;;;5137894;27;20039;-78
2022/01/05 04:22:58;;;;;;;;;;;;;;;;;;5140767;27;19922;-78
2022/01/05 04:25:24;;;;;;;;;;;;;;;;;;5138047;27;20299;-79
2022/01/05 04:27:49;;;;;;;;;;;;;;;;;;5137894;27;19922;-78
2022/01/05 04:30:15;;;;;;;;;;;;;;;;;;5119407;27;19916;-79
2022/01/05 04:32:40;;;;;;;;;;;;;;;;;;5137850;27;19997;-78
2022/01/05 04:35:05;;;;;;;;;;;;;;;;;;5137494;27;20295;-78
2022/01/05 04:37:32;;;;;;;;;;;;;;;;;;5138301;27;19972;-78
2022/01/05 04:39:57;;;;;;;;;;;;;;;;;;5143260;27;19942;-79
2022/01/05 04:42:24;;;;;;;;;;;;;;;;;;5143644;27;20441;-79
2022/01/05 04:44:50;;;;;;;;;;;;;;;;;;5136723;27;19915;-79
2022/01/05 04:47:15;;;;;;;;;;;;;;;;;;5137518;27;19961;-78
2022/01/05 04:49:40;;;;;;;;;;;;;;;;;;5137242;27;19915;-79
2022/01/05 04:52:06;;;;;;;;;;;;;;;;;;5137518;27;19916;-79
2022/01/05 04:54:31;;;;;;;;;;;;;;;;;;5137398;27;19947;-78
2022/01/05 04:56:57;;;;;;;;;;;;;;;;;;5137401;27;19916;-78
2022/01/05 04:59:22;;;;;;;;;;;;;;;;;;5136622;27;19916;-79
2022/01/05 05:01:47;;;;;;;;;;;;;;;;;;5141996;27;19931;-78
2022/01/05 05:04:13;;;;;;;;;;;;;;;;;;5136351;27;19915;-78
2022/01/05 05:06:38;;;;;;;;;;;;;;;;;;5135994;27;19915;-78
2022/01/05 05:09:03;;;;;;;;;;;;;;;;;;5136172;27;19938;-81
2022/01/05 05:11:29;;;;;;;;;;;;;;;;;;5137033;27;19969;-78
2022/01/05 05:13:54;;;;;;;;;;;;;;;;;;5137511;27;19923;-78
2022/01/05 05:16:19;;;;;;;;;;;;;;;;;;5137017;27;20264;-77
2022/01/05 05:18:45;;;;;;;;;;;;;;;;;;5136035;27;19915;-77
2022/01/05 05:21:10;;;;;;;;;;;;;;;;;;5136473;27;20009;-77
2022/01/05 05:23:35;;;;;;;;;;;;;;;;;;5136849;27;19966;-78
2022/01/05 05:26:01;;;;;;;;;;;;;;;;;;5135722;27;19916;-77
2022/01/05 05:28:26;;;;;;;;;;;;;;;;;;5135384;27;19915;-77
2022/01/05 05:30:51;;;;;;;;;;;;;;;;;;5147253;27;19958;-77
2022/01/05 05:33:17;;;;;;;;;;;;;;;;;;5150253;27;20225;-78
2022/01/05 05:35:42;;;;;;;;;;;;;;;;;;5153326;27;19938;-77
2022/01/05 05:38:08;;;;;;;;;;;;;;;;;;5157744;27;19911;-77
2022/01/05 05:40:33;;;;;;;;;;;;;;;;;;5159094;27;19964;-77
2022/01/05 05:42:59;;;;;;;;;;;;;;;;;;5137994;27;20328;-77
2022/01/05 05:45:24;;;;;;;;;;;;;;;;;;5132655;27;19915;-78
2022/01/05 05:47:49;;;;;;;;;;;;;;;;;;5114335;27;19917;-78
2022/01/05 05:50:15;;;;;;;;;;;;;;;;;;5130948;27;19915;-77
2022/01/05 05:52:40;;;;;;;;;;;;;;;;;;5130264;27;19915;-77
2022/01/05 05:55:06;;;;;;;;;;;;;;;;;;5129131;27;19924;-77
2022/01/05 05:57:31;;;;;;;;;;;;;;;;;;5128933;27;20366;-76
2022/01/05 05:59:57;;;;;;;;;;;;;;;;;;5128546;27;19920;-79
2022/01/05 06:02:22;;;;;;;;;;;;;;;;;;5111987;27;19929;-78
2022/01/05 06:04:48;;;;;;;;;;;;;;;;;;5122505;27;19927;-77
2022/01/05 06:07:13;;;;;;;;;;;;;;;;;;5125049;27;19980;-77
2022/01/05 06:09:39;;;;;;;;;;;;;;;;;;5126537;27;19919;-77
2022/01/05 06:12:04;;;;;;;;;;;;;;;;;;5121637;27;19923;-76
2022/01/05 06:14:30;;;;;;;;;;;;;;;;;;5120144;27;19964;-76
2022/01/05 06:16:55;;;;;;;;;;;;;;;;;;5120805;27;20011;-76
2022/01/05 06:19:21;;;;;;;;;;;;;;;;;;5124379;27;20372;-76
2022/01/05 06:21:47;;;;;;;;;;;;;;;;;;5121918;27;19916;-76
2022/01/05 06:24:12;;;;;;;;;;;;;;;;;;5119917;27;19915;-75
2022/01/05 06:26:38;;;;;;;;;;;;;;;;;;5121524;27;20237;-76
2022/01/05 06:29:03;;;;;;;;;;;;;;;;;;5126938;27;19976;-75
2022/01/05 06:31:29;;;;;;;;;;;;;;;;;;5127731;27;20370;-77
2022/01/05 06:33:54;;;;;;;;;;;;;;;;;;5129705;27;19924;-77
2022/01/05 06:36:19;;;;;;;;;;;;;;;;;;5137380;27;19915;-75
2022/01/05 06:38:48;;;;;;;;;;;;;;;;;;5132869;27;20371;-77
2022/01/05 06:41:17;;;;;;;;;;;;;;;;;;5123629;27;19942;-74
2022/01/05 06:43:43;;;;;;;;;;;;;;;;;;5123629;28;20352;-76
2022/01/05 06:46:09;;;;;;;;;;;;;;;;;;5127568;28;19970;-74
2022/01/05 06:48:34;;;;;;;;;;;;;;;;;;5130296;28;19925;-74
2022/01/05 06:51:00;;;;;;;;;;;;;;;;;;5131936;27;19980;-73
2022/01/05 06:53:25;;;;;;;;;;;;;;;;;;5132724;27;20013;-74
2022/01/05 06:55:51;;;;;;;;;;;;;;;;;;5131844;27;19972;-72
2022/01/05 06:58:16;;;;;;;;;;;;;;;;;;5129795;27;19926;-75
2022/01/05 07:00:42;;;;;;;;;;;;;;;;;;5127642;27;19927;-74
2022/01/05 07:03:07;;;;;;;;;;;;;;;;;;5128144;27;19944;-75
2022/01/05 07:05:33;;;;;;;;;;;;;;;;;;5132237;27;19993;-72
2022/01/05 07:08:02;;;;;;;;;;;;;;;;;;5128540;27;19919;-75
2022/01/05 07:10:27;;;;;;;;;;;;;;;;;;5129522;28;20014;-73
2022/01/05 07:12:53;;;;;;;;;;;;;;;;;;5129836;27;20090;-74
2022/01/05 07:15:18;;;;;;;;;;;;;;;;;;5129884;28;19976;-74
2022/01/05 07:17:44;;;;;;;;;;;;;;;;;;5131769;27;19919;-74
2022/01/05 07:20:09;;;;;;;;;;;;;;;;;;5129464;27;19927;-74
2022/01/05 07:22:35;;;;;;;;;;;;;;;;;;5125109;28;19923;-75
2022/01/05 07:25:13;;;;;;;;;;;;;;;;;;5137228;27;19919;-74
2022/01/05 07:27:39;;;;;;;;;;;;;;;;;;5127725;27;19962;-74
2022/01/05 07:30:05;;;;;;;;;;;;;;;;;;5132317;27;19962;-74
2022/01/05 07:32:30;;;;;;;;;;;;;;;;;;5133469;27;19919;-73
2022/01/05 07:34:56;;;;;;;;;;;;;;;;;;5132299;27;19920;-74
2022/01/05 07:37:21;;;;;;;;;;;;;;;;;;5127960;27;19919;-74
2022/01/05 07:39:46;;;;;;;;;;;;;;;;;;5137022;27;19938;-77
2022/01/05 07:42:12;;;;;;;;;;;;;;;;;;5116773;27;20067;-74
2022/01/05 07:44:37;;;;;;;;;;;;;;;;;;5131888;27;19920;-77
2022/01/05 07:47:15;;;;;;;;;;;;;;;;;;5106826;27;19915;-75
2022/01/05 07:49:40;;;;;;;;;;;;;;;;;;5139077;27;20488;-74
2022/01/05 07:52:06;;;;;;;;;;;;;;;;;;5131675;27;19930;-76
2022/01/05 07:54:32;;;;;;;;;;;;;;;;;;5152358;27;20091;-73
2022/01/05 07:56:58;;;;;;;;;;;;;;;;;;5152143;27;20010;-74
2022/01/05 07:59:23;;;;;;;;;;;;;;;;;;5149451;27;20146;-74
2022/01/05 08:01:48;;;;;;;;;;;;;;;;;;5133011;27;19926;-74
2022/01/05 08:04:14;;;;;;;;;;;;;;;;;;5131816;27;20467;-76
2022/01/05 08:06:39;;;;;;;;;;;;;;;;;;5132742;27;19975;-74
2022/01/05 08:09:06;;;;;;;;;;;;;;;;;;5132795;27;19964;-75
2022/01/05 08:11:31;;;;;;;;;;;;;;;;;;5133222;27;19922;-75
2022/01/05 08:13:57;;;;;;;;;;;;;;;;;;5134711;27;19927;-76
2022/01/05 08:16:22;;;;;;;;;;;;;;;;;;5139555;27;19915;-78
2022/01/05 08:18:49;;;;;;;;;;;;;;;;;;5135330;27;20295;-75
2022/01/05 08:21:16;;;;;;;;;;;;;;;;;;5136550;27;19927;-76
2022/01/05 08:23:41;;;;;;;;;;;;;;;;;;5154303;27;20525;-75
2022/01/05 08:26:07;;;;;;;;;;;;;;;;;;5143672;27;20523;-75
2022/01/05 08:28:32;;;;;;;;;;;;;;;;;;5158288;27;20419;-77
2022/01/05 08:30:58;;;;;;;;;;;;;;;;;;5158162;27;19921;-75
2022/01/05 08:33:23;;;;;;;;;;;;;;;;;;5141396;27;19920;-77
2022/01/05 08:35:49;;;;;;;;;;;;;;;;;;5129637;27;19922;-72
2022/01/05 08:38:15;;;;;;;;;;;;;;;;;;5136343;27;19930;-73
2022/01/05 08:40:40;;;;;;;;;;;;;;;;;;5127609;27;19915;-75
2022/01/05 08:43:06;;;;;;;;;;;;;;;;;;5131035;27;19915;-74
2022/01/05 08:45:31;;;;;;;;;;;;;;;;;;5130189;27;19946;-76
2022/01/05 08:47:56;;;;;;;;;;;;;;;;;;5132112;27;20229;-74
2022/01/05 08:50:23;;;;;;;;;;;;;;;;;;5131486;27;19922;-75
2022/01/05 08:52:49;;;;;;;;;;;;;;;;;;5130061;27;20009;-75
2022/01/05 08:55:14;;;;;;;;;;;;;;;;;;5138416;27;19958;-73
2022/01/05 08:57:40;;;;;;;;;;;;;;;;;;5115231;27;19930;-75
2022/01/05 09:00:06;;;;;;;;;;;;;;;;;;5126447;27;20009;-75
2022/01/05 09:02:34;;;;;;;;;;;;;;;;;;5134162;27;19919;-74
2022/01/05 09:05:00;;;;;;;;;;;;;;;;;;5115767;27;19920;-73
2022/01/05 09:07:25;;;;;;;;;;;;;;;;;;5121710;27;19938;-75
2022/01/05 09:09:51;;;;;;;;;;;;;;;;;;5133564;27;19927;-75
2022/01/05 09:12:16;;;;;;;;;;;;;;;;;;5130199;27;19958;-76
2022/01/05 09:14:42;;;;;;;;;;;;;;;;;;5136841;27;20285;-77
2022/01/05 09:17:07;;;;;;;;;;;;;;;;;;5128945;27;20399;-75
2022/01/05 09:19:33;;;;;;;;;;;;;;;;;;5122067;27;19926;-75
2022/01/05 09:21:58;;;;;;;;;;;;;;;;;;5121339;27;19919;-75
2022/01/05 09:24:25;;;;;;;;;;;;;;;;;;5120682;27;20000;-77
2022/01/05 09:26:50;;;;;;;;;;;;;;;;;;5120524;27;20023;-77
2022/01/05 09:29:17;;;;;;;;;;;;;;;;;;5120625;27;20080;-77
2022/01/05 09:31:43;;;;;;;;;;;;;;;;;;5120331;27;19920;-74
2022/01/05 09:34:08;;;;;;;;;;;;;;;;;;5125523;27;19922;-76
2022/01/05 09:36:38;;;;;;;;;;;;;;;;;;5131267;27;19922;-78
2022/01/05 09:41:56;;;;;;;;;;;;;;;;;;5136182;27;19937;-75
2022/01/05 09:44:22;;;;;;;;;;;;;;;;;;5135020;27;20338;-76
2022/01/05 09:47:00;;;;;;;;;;;;;;;;;;5131643;27;19954;-75
2022/01/05 09:49:28;;;;;;;;;;;;;;;;;;5126127;27;19924;-77
2022/01/05 09:51:56;;;;;;;;;;;;;;;;;;5125667;27;19927;-77
2022/01/05 09:54:22;;;;;;;;;;;;;;;;;;5130663;27;19969;-77
2022/01/05 09:56:48;;;;;;;;;;;;;;;;;;5128886;27;19927;-76
2022/01/05 09:59:15;;;;;;;;;;;;;;;;;;5124645;27;19919;-76
2022/01/05 10:01:44;;;;;;;;;;;;;;;;;;5127402;27;20002;-75
2022/01/05 10:04:10;;;;;;;;;;;;;;;;;;5121701;27;19938;-77
2022/01/05 10:06:37;;;;;;;;;;;;;;;;;;5109599;27;19920;-76
2022/01/05 10:09:03;;;;;;;;;;;;;;;;;;5115611;27;20688;-77
2022/01/05 10:11:29;;;;;;;;;;;;;;;;;;5130908;27;19923;-75
2022/01/05 10:13:55;;;;;;;;;;;;;;;;;;5124962;27;20312;-78
2022/01/05 10:16:20;;;;;;;;;;;;;;;;;;5120888;27;19911;-78
2022/01/05 10:18:45;;;;;;;;;;;;;;;;;;5133555;27;19980;-76
2022/01/05 10:21:13;;;;;;;;;;;;;;;;;;5128463;27;19968;-75
2022/01/05 10:23:39;;;;;;;;;;;;;;;;;;5130006;27;19927;-74
2022/01/05 10:26:23;;;;;;;;;;;;;;;;;;5133832;27;19923;-75
2022/01/05 10:28:52;;;;;;;;;;;;;;;;;;5129378;27;20379;-76
2022/01/05 10:31:18;;;;;;;;;;;;;;;;;;5133082;27;20317;-77
2022/01/05 10:33:44;;;;;;;;;;;;;;;;;;5134614;27;19919;-74
2022/01/05 10:36:09;;;;;;;;;;;;;;;;;;5125449;27;19920;-73
2022/01/05 10:38:35;;;;;;;;;;;;;;;;;;5122616;27;19912;-75
2022/01/05 10:41:16;;;;;;;;;;;;;;;;;;5123330;27;19920;-78
2022/01/05 10:44:00;;;;;;;;;;;;;;;;;;5131414;27;19992;-78
2022/01/05 10:46:33;;;;;;;;;;;;;;;;;;5110490;28;20257;-75
2022/01/05 10:48:58;;;;;;;;;;;;;;;;;;5128078;28;19925;-75
2022/01/05 10:51:28;;;;;;;;;;;;;;;;;;5131428;27;19919;-76
2022/01/05 10:54:14;;;;;;;;;;;;;;;;;;5115113;28;19989;-76
2022/01/05 10:56:40;;;;;;;;;;;;;;;;;;5149816;27;19919;-75
2022/01/05 10:59:05;;;;;;;;;;;;;;;;;;5150032;27;19921;-74
2022/01/05 11:01:31;;;;;;;;;;;;;;;;;;5135713;27;19927;-76
2022/01/05 11:03:56;;;;;;;;;;;;;;;;;;5118179;28;20379;-74
2022/01/05 11:06:22;;;;;;;;;;;;;;;;;;5118657;27;19919;-74
2022/01/05 11:08:52;;;;;;;;;;;;;;;;;;5116448;28;19956;-75
2022/01/05 11:11:29;;;;;;;;;;;;;;;;;;5116586;27;20604;-75
2022/01/05 11:13:55;;;;;;;;;;;;;;;;;;5137388;27;19947;-76
2022/01/05 11:16:28;;;;;;;;;;;;;;;;;;5135067;27;19915;-75
2022/01/05 11:19:12;;;;;;;;;;;;;;;;;;5134202;27;20222;-73
2022/01/05 11:21:38;;;;;;;;;;;;;;;;;;5135413;27;19950;-77
2022/01/05 11:24:04;;;;;;;;;;;;;;;;;;5130717;27;19927;-75
2022/01/05 11:26:30;;;;;;;;;;;;;;;;;;5126693;27;19919;-75
2022/01/05 11:28:55;;;;;;;;;;;;;;;;;;5130693;27;19920;-75
2022/01/05 11:31:20;;;;;;;;;;;;;;;;;;5112287;28;20011;-74
2022/01/05 11:33:46;;;;;;;;;;;;;;;;;;5121987;27;19947;-75
2022/01/05 11:36:14;;;;;;;;;;;;;;;;;;5114299;27;20456;-75
2022/01/05 11:38:40;;;;;;;;;;;;;;;;;;5129273;27;20344;-75
2022/01/05 11:41:08;;;;;;;;;;;;;;;;;;5133381;27;19968;-75
2022/01/05 11:43:35;;;;;;;;;;;;;;;;;;5133582;27;19955;-75
2022/01/05 11:46:13;;;;;;;;;;;;;;;;;;5127973;27;19968;-74
2022/01/05 11:48:40;;;;;;;;;;;;;;;;;;5126896;27;20008;-74
2022/01/05 11:51:05;;;;;;;;;;;;;;;;;;5124892;27;19915;-75
2022/01/05 11:53:33;;;;;;;;;;;;;;;;;;5136873;27;19920;-74
2022/01/05 11:55:58;;;;;;;;;;;;;;;;;;5120593;27;19919;-74
2022/01/05 11:58:27;;;;;;;;;;;;;;;;;;5130477;27;19968;-75
2022/01/05 12:01:11;;;;;;;;;;;;;;;;;;5121885;27;19925;-74
2022/01/05 12:03:57;;;;;;;;;;;;;;;;;;5119653;27;19919;-74
2022/01/05 12:06:25;;;;;;;;;;;;;;;;;;5123831;27;19923;-76
2022/01/05 12:08:51;;;;;;;;;;;;;;;;;;5125509;27;20389;-73
2022/01/05 12:11:26;;;;;;;;;;;;;;;;;;5112742;27;20006;-76
2022/01/05 12:13:51;;;;;;;;;;;;;;;;;;5140745;27;20348;-75
2022/01/05 12:16:17;;;;;;;;;;;;;;;;;;5121537;27;19968;-76
2022/01/05 12:18:43;;;;;;;;;;;;;;;;;;5134307;27;19927;-76
2022/01/05 12:21:18;;;;;;;;;;;;;;;;;;5136639;27;19916;-75
2022/01/05 12:23:50;;;;;;;;;;;;;;;;;;5125613;27;19966;-75
2022/01/05 12:26:16;;;;;;;;;;;;;;;;;;5134466;27;19919;-76
2022/01/05 12:28:52;;;;;;;;;;;;;;;;;;5134345;27;19915;-76
2022/01/05 12:31:17;;;;;;;;;;;;;;;;;;5141793;27;19918;-76
2022/01/05 12:33:43;;;;;;;;;;;;;;;;;;5139590;27;19915;-76
2022/01/05 12:36:08;;;;;;;;;;;;;;;;;;5135966;27;19915;-76
2022/01/05 12:38:37;;;;;;;;;;;;;;;;;;5139572;27;20022;-77
2022/01/05 12:41:21;;;;;;;;;;;;;;;;;;5136497;27;19920;-78
2022/01/05 12:43:46;;;;;;;;;;;;;;;;;;5138140;27;19947;-77
2022/01/05 12:46:13;;;;;;;;;;;;;;;;;;5136903;27;19922;-76
2022/01/05 12:48:43;;;;;;;;;;;;;;;;;;5135578;27;20261;-79
2022/01/05 12:51:11;;;;;;;;;;;;;;;;;;5137490;27;19916;-75
2022/01/05 12:54:00;;;;;;;;;;;;;;;;;;5137933;27;19927;-76
2022/01/05 12:56:28;;;;;;;;;;;;;;;;;;5129995;27;19916;-76
2022/01/05 12:58:53;;;;;;;;;;;;;;;;;;5118747;27;19915;-75
2022/01/05 13:01:19;;;;;;;;;;;;;;;;;;5117470;27;19927;-76
2022/01/05 13:03:44;;;;;;;;;;;;;;;;;;5114911;27;19923;-76
2022/01/05 13:06:13;;;;;;;;;;;;;;;;;;5114074;28;19915;-76
2022/01/05 13:08:48;;;;;;;;;;;;;;;;;;5114422;28;19927;-75
2022/01/05 13:11:14;;;;;;;;;;;;;;;;;;5118026;28;20002;-76
2022/01/05 13:13:42;;;;;;;;;;;;;;;;;;5123853;27;20009;-76
2022/01/05 13:16:26;;;;;;;;;;;;;;;;;;5116881;27;20378;-76
2022/01/05 13:18:51;;;;;;;;;;;;;;;;;;5133697;27;20003;-77
2022/01/05 13:21:16;;;;;;;;;;;;;;;;;;5133661;27;19946;-76
2022/01/05 13:23:53;;;;;;;;;;;;;;;;;;5133385;27;20358;-76
2022/01/05 13:26:19;;;;;;;;;;;;;;;;;;5133495;27;20287;-76
2022/01/05 13:28:44;;;;;;;;;;;;;;;;;;5137510;27;19915;-75
2022/01/05 13:31:09;;;;;;;;;;;;;;;;;;5138454;27;20370;-74
2022/01/05 13:33:35;;;;;;;;;;;;;;;;;;5134291;27;19915;-76
2022/01/05 13:36:00;;;;;;;;;;;;;;;;;;5134684;27;19915;-76
2022/01/05 13:38:26;;;;;;;;;;;;;;;;;;5133245;27;19912;-77
2022/01/05 13:40:54;;;;;;;;;;;;;;;;;;5117492;27;19943;-76
2022/01/05 13:43:20;;;;;;;;;;;;;;;;;;5135078;27;19961;-75
2022/01/05 13:45:48;;;;;;;;;;;;;;;;;;5134626;27;19915;-76
2022/01/05 13:48:13;;;;;;;;;;;;;;;;;;5136515;27;19916;-76
2022/01/05 13:50:42;;;;;;;;;;;;;;;;;;5143191;27;19975;-76
2022/01/05 13:53:09;;;;;;;;;;;;;;;;;;5136246;27;20000;-75
2022/01/05 13:55:36;;;;;;;;;;;;;;;;;;5117940;27;20443;-76
2022/01/05 13:58:02;;;;;;;;;;;;;;;;;;5134817;27;19968;-77
2022/01/05 14:00:28;;;;;;;;;;;;;;;;;;5134496;27;19915;-76
2022/01/05 14:02:53;;;;;;;;;;;;;;;;;;5134591;27;19919;-75
2022/01/05 14:05:18;;;;;;;;;;;;;;;;;;5134909;27;19922;-76
2022/01/05 14:07:44;;;;;;;;;;;;;;;;;;5134828;27;19918;-76
2022/01/05 14:10:12;;;;;;;;;;;;;;;;;;5141218;27;19915;-76
2022/01/05 14:12:39;;;;;;;;;;;;;;;;;;5134739;27;19951;-76
2022/01/05 14:15:05;;;;;;;;;;;;;;;;;;5134057;27;19919;-76
2022/01/05 14:17:31;;;;;;;;;;;;;;;;;;5135783;27;19950;-76
2022/01/05 14:20:12;;;;;;;;;;;;;;;;;;5117824;27;20006;-77
2022/01/05 14:22:37;;;;;;;;;;;;;;;;;;5135712;27;20009;-76
2022/01/05 14:25:03;;;;;;;;;;;;;;;;;;5136051;27;19958;-75
2022/01/05 14:27:34;;;;;;;;;;;;;;;;;;5134845;27;19923;-77
2022/01/05 14:30:01;;;;;;;;;;;;;;;;;;5136790;27;19915;-78
2022/01/05 14:32:32;;;;;;;;;;;;;;;;;;5135504;27;19915;-79
2022/01/05 14:34:59;;;;;;;;;;;;;;;;;;5118017;27;20376;-75
2022/01/05 14:37:25;;;;;;;;;;;;;;;;;;5135469;27;19915;-75
2022/01/05 14:39:51;;;;;;;;;;;;;;;;;;5116944;28;19922;-76
2022/01/05 14:42:17;;;;;;;;;;;;;;;;;;5132546;27;19919;-75
2022/01/05 14:44:46;;;;;;;;;;;;;;;;;;5133359;28;19941;-76
2022/01/05 14:47:12;;;;;;;;;;;;;;;;;;5135821;27;19915;-76
2022/01/05 14:49:38;;;;;;;;;;;;;;;;;;5134158;27;19933;-76
2022/01/05 14:52:04;;;;;;;;;;;;;;;;;;5142250;27;19916;-76
2022/01/05 14:54:36;;;;;;;;;;;;;;;;;;5138375;27;19915;-76
2022/01/05 14:57:02;;;;;;;;;;;;;;;;;;5138681;27;19918;-75
2022/01/05 14:59:27;;;;;;;;;;;;;;;;;;5139215;27;19919;-75
2022/01/05 15:01:52;;;;;;;;;;;;;;;;;;5139219;27;19919;-75
2022/01/05 15:04:18;;;;;;;;;;;;;;;;;;5139069;27;20294;-75
2022/01/05 15:06:43;;;;;;;;;;;;;;;;;;5138927;27;19916;-75
2022/01/05 15:09:09;;;;;;;;;;;;;;;;;;5138179;27;19912;-75
2022/01/05 15:11:34;;;;;;;;;;;;;;;;;;5142751;27;19915;-76
2022/01/05 15:14:00;;;;;;;;;;;;;;;;;;5140068;27;20273;-75
2022/01/05 15:16:25;;;;;;;;;;;;;;;;;;5139795;27;19912;-75
2022/01/05 15:18:50;;;;;;;;;;;;;;;;;;5138342;27;19915;-75
2022/01/05 15:21:16;;;;;;;;;;;;;;;;;;5139158;27;19964;-75
2022/01/05 15:23:41;;;;;;;;;;;;;;;;;;5139090;27;19915;-77
2022/01/05 15:26:08;;;;;;;;;;;;;;;;;;5137654;27;19924;-75
2022/01/05 15:28:33;;;;;;;;;;;;;;;;;;5137955;27;19916;-75
2022/01/05 15:30:59;;;;;;;;;;;;;;;;;;5137907;27;19915;-75
2022/01/05 15:33:25;;;;;;;;;;;;;;;;;;5145808;27;19965;-76
2022/01/05 15:35:50;;;;;;;;;;;;;;;;;;5137892;27;19962;-76
2022/01/05 15:38:18;;;;;;;;;;;;;;;;;;5137733;27;19959;-76
2022/01/05 15:40:43;;;;;;;;;;;;;;;;;;5138625;27;19922;-76
2022/01/05 15:43:09;;;;;;;;;;;;;;;;;;5120485;27;20252;-76
2022/01/05 15:45:34;;;;;;;;;;;;;;;;;;5139343;27;20053;-76
2022/01/05 15:48:00;;;;;;;;;;;;;;;;;;5138958;27;19923;-75
2022/01/05 15:50:29;;;;;;;;;;;;;;;;;;5138726;27;19927;-75
2022/01/05 15:52:54;;;;;;;;;;;;;;;;;;5142133;27;19900;-75
2022/01/05 15:55:22;;;;;;;;;;;;;;;;;;5140238;27;19915;-75
2022/01/05 16:03:02;;;;;;;;;;;;;;;;;;5138075;27;19934;-76
2022/01/05 16:05:27;;;;;;;;;;;;;;;;;;5137400;27;19919;-75
2022/01/05 16:07:53;;;;;;;;;;;;;;;;;;5138548;27;20325;-76
2022/01/05 16:10:19;;;;;;;;;;;;;;;;;;5138402;27;20344;-76
2022/01/05 16:12:45;;;;;;;;;;;;;;;;;;5138631;27;20260;-77
2022/01/05 16:15:10;;;;;;;;;;;;;;;;;;5143532;27;19916;-78
2022/01/05 16:17:37;;;;;;;;;;;;;;;;;;5138102;27;20318;-74
2022/01/05 16:20:04;;;;;;;;;;;;;;;;;;5138031;27;19915;-75
2022/01/05 16:22:29;;;;;;;;;;;;;;;;;;5138653;27;19916;-74
2022/01/05 16:24:54;;;;;;;;;;;;;;;;;;5136591;27;20325;-75
2022/01/05 16:27:20;;;;;;;;;;;;;;;;;;5138301;27;19973;-78
2022/01/05 16:29:45;;;;;;;;;;;;;;;;;;5119780;27;19916;-75
2022/01/05 16:32:11;;;;;;;;;;;;;;;;;;5138264;27;19957;-75
2022/01/05 16:34:37;;;;;;;;;;;;;;;;;;5142340;27;19923;-76
2022/01/05 16:37:02;;;;;;;;;;;;;;;;;;5137932;27;19916;-75
2022/01/05 16:39:28;;;;;;;;;;;;;;;;;;5137721;27;19919;-74
2022/01/05 16:41:53;;;;;;;;;;;;;;;;;;5137733;27;19941;-75
2022/01/05 16:44:18;;;;;;;;;;;;;;;;;;5137750;27;19923;-75
2022/01/05 16:46:44;;;;;;;;;;;;;;;;;;5137658;27;19915;-75
2022/01/05 16:49:10;;;;;;;;;;;;;;;;;;5136407;27;20306;-75